sensor_id;sensor_type;location;lat;lon;timestamp;temperature;humidity
57652;DHT22;43480;53.116;6.734;2024-01-07T00:00:27;0.60;99.90
57652;DHT22;43480;53.116;6.734;2024-01-07T00:02:53;0.60;99.90
57652;DHT22;43480;53.116;6.734;2024-01-07T00:05:19;0.60;99.90
57652;DHT22;43480;53.116;6.734;2024-01-07T00:07:44;0.60;99.90
57652;DHT22;43480;53.116;6.734;2024-01-07T00:10:10;0.60;99.90
57652;DHT22;43480;53.116;6.734;2024-01-07T00:12:36;0.60;99.90
57652;DHT22;43480;53.116;6.734;2024-01-07T00:15:02;0.60;99.90
57652;DHT22;43480;53.116;6.734;2024-01-07T00:17:28;0.60;99.90
57652;DHT22;43480;53.116;6.734;2024-01-07T00:19:54;0.60;99.90
57652;DHT22;43480;53.116;6.734;2024-01-07T00:22:19;0.50;99.90
57652;DHT22;43480;53.116;6.734;2024-01-07T00:24:45;0.60;99.90
57652;DHT22;43480;53.116;6.734;2024-01-07T00:27:11;0.60;99.90
57652;DHT22;43480;53.116;6.734;2024-01-07T00:29:37;0.60;99.90
57652;DHT22;43480;53.116;6.734;2024-01-07T00:32:02;0.60;99.90
57652;DHT22;43480;53.116;6.734;2024-01-07T00:34:28;0.50;99.90
57652;DHT22;43480;53.116;6.734;2024-01-07T00:36:54;0.50;99.90
57652;DHT22;43480;53.116;6.734;2024-01-07T00:39:21;0.50;99.90
57652;DHT22;43480;53.116;6.734;2024-01-07T00:41:46;0.50;99.90
57652;DHT22;43480;53.116;6.734;2024-01-07T00:44:12;0.50;99.90
57652;DHT22;43480;53.116;6.734;2024-01-07T00:46:38;0.50;99.90
57652;DHT22;43480;53.116;6.734;2024-01-07T00:49:04;0.50;99.90
57652;DHT22;43480;53.116;6.734;2024-01-07T00:51:29;0.50;99.90
57652;DHT22;43480;53.116;6.734;2024-01-07T00:53:55;0.50;99.90
57652;DHT22;43480;53.116;6.734;2024-01-07T00:56:21;0.40;99.90
57652;DHT22;43480;53.116;6.734;2024-01-07T00:58:47;0.40;99.90
57652;DHT22;43480;53.116;6.734;2024-01-07T01:01:12;0.40;99.90
57652;DHT22;43480;53.116;6.734;2024-01-07T01:03:38;0.40;99.90
57652;DHT22;43480;53.116;6.734;2024-01-07T01:06:04;0.40;99.90
57652;DHT22;43480;53.116;6.734;2024-01-07T01:08:30;0.40;99.90
57652;DHT22;43480;53.116;6.734;2024-01-07T01:10:55;0.40;99.90
57652;DHT22;43480;53.116;6.734;2024-01-07T01:13:21;0.40;99.90
57652;DHT22;43480;53.116;6.734;2024-01-07T01:15:47;0.40;99.90
57652;DHT22;43480;53.116;6.734;2024-01-07T01:18:13;0.40;99.90
57652;DHT22;43480;53.116;6.734;2024-01-07T01:20:38;0.40;99.90
57652;DHT22;43480;53.116;6.734;2024-01-07T01:23:04;0.40;99.90
57652;DHT22;43480;53.116;6.734;2024-01-07T01:25:30;0.40;99.90
57652;DHT22;43480;53.116;6.734;2024-01-07T01:27:56;0.40;99.90
57652;DHT22;43480;53.116;6.734;2024-01-07T01:30:22;0.40;99.90
57652;DHT22;43480;53.116;6.734;2024-01-07T01:32:48;0.40;99.90
57652;DHT22;43480;53.116;6.734;2024-01-07T01:35:14;0.40;99.90
57652;DHT22;43480;53.116;6.734;2024-01-07T01:37:39;0.40;99.90
57652;DHT22;43480;53.116;6.734;2024-01-07T01:40:06;0.40;99.90
57652;DHT22;43480;53.116;6.734;2024-01-07T01:42:31;0.30;99.90
57652;DHT22;43480;53.116;6.734;2024-01-07T01:44:57;0.30;99.90
57652;DHT22;43480;53.116;6.734;2024-01-07T01:47:28;0.30;99.90
57652;DHT22;43480;53.116;6.734;2024-01-07T01:49:54;0.30;99.90
57652;DHT22;43480;53.116;6.734;2024-01-07T01:52:20;0.30;99.90
57652;DHT22;43480;53.116;6.734;2024-01-07T01:54:46;0.30;99.90
57652;DHT22;43480;53.116;6.734;2024-01-07T01:57:16;0.30;99.90
57652;DHT22;43480;53.116;6.734;2024-01-07T01:59:44;0.30;99.90
57652;DHT22;43480;53.116;6.734;2024-01-07T02:02:10;0.30;99.90
57652;DHT22;43480;53.116;6.734;2024-01-07T02:04:37;0.30;99.90
57652;DHT22;43480;53.116;6.734;2024-01-07T02:07:02;0.30;99.90
57652;DHT22;43480;53.116;6.734;2024-01-07T02:09:28;0.30;99.90
57652;DHT22;43480;53.116;6.734;2024-01-07T02:12:04;0.30;99.90
57652;DHT22;43480;53.116;6.734;2024-01-07T02:14:30;0.30;99.90
57652;DHT22;43480;53.116;6.734;2024-01-07T02:16:56;0.30;99.90
57652;DHT22;43480;53.116;6.734;2024-01-07T02:19:22;0.30;99.90
57652;DHT22;43480;53.116;6.734;2024-01-07T02:21:50;0.30;99.90
57652;DHT22;43480;53.116;6.734;2024-01-07T02:24:16;0.30;99.90
57652;DHT22;43480;53.116;6.734;2024-01-07T02:26:42;0.30;99.90
57652;DHT22;43480;53.116;6.734;2024-01-07T02:29:08;0.30;99.90
57652;DHT22;43480;53.116;6.734;2024-01-07T02:31:34;0.30;99.90
57652;DHT22;43480;53.116;6.734;2024-01-07T02:34:00;0.30;99.90
57652;DHT22;43480;53.116;6.734;2024-01-07T02:36:25;0.30;99.90
57652;DHT22;43480;53.116;6.734;2024-01-07T02:38:51;0.30;99.90
57652;DHT22;43480;53.116;6.734;2024-01-07T02:41:17;0.30;99.90
57652;DHT22;43480;53.116;6.734;2024-01-07T02:43:43;0.30;99.90
57652;DHT22;43480;53.116;6.734;2024-01-07T02:46:09;0.30;99.90
57652;DHT22;43480;53.116;6.734;2024-01-07T02:48:34;0.30;99.90
57652;DHT22;43480;53.116;6.734;2024-01-07T02:51:00;0.30;99.90
57652;DHT22;43480;53.116;6.734;2024-01-07T02:53:28;0.30;99.90
57652;DHT22;43480;53.116;6.734;2024-01-07T02:55:54;0.30;99.90
57652;DHT22;43480;53.116;6.734;2024-01-07T02:58:20;0.30;99.90
57652;DHT22;43480;53.116;6.734;2024-01-07T03:00:46;0.40;99.90
57652;DHT22;43480;53.116;6.734;2024-01-07T03:03:12;0.40;99.90
57652;DHT22;43480;53.116;6.734;2024-01-07T03:05:37;0.40;99.90
57652;DHT22;43480;53.116;6.734;2024-01-07T03:08:03;0.40;99.90
57652;DHT22;43480;53.116;6.734;2024-01-07T03:10:29;0.40;99.90
57652;DHT22;43480;53.116;6.734;2024-01-07T03:12:55;0.40;99.90
57652;DHT22;43480;53.116;6.734;2024-01-07T03:15:21;0.50;99.90
57652;DHT22;43480;53.116;6.734;2024-01-07T03:17:46;0.40;99.90
57652;DHT22;43480;53.116;6.734;2024-01-07T03:20:12;0.40;99.90
57652;DHT22;43480;53.116;6.734;2024-01-07T03:22:38;0.40;99.90
57652;DHT22;43480;53.116;6.734;2024-01-07T03:25:04;0.40;99.90
57652;DHT22;43480;53.116;6.734;2024-01-07T03:27:30;0.40;99.90
57652;DHT22;43480;53.116;6.734;2024-01-07T03:29:56;0.30;99.90
57652;DHT22;43480;53.116;6.734;2024-01-07T03:32:22;0.40;99.90
57652;DHT22;43480;53.116;6.734;2024-01-07T03:34:47;0.40;99.90
57652;DHT22;43480;53.116;6.734;2024-01-07T03:37:13;0.40;99.90
57652;DHT22;43480;53.116;6.734;2024-01-07T03:39:39;0.30;99.90
57652;DHT22;43480;53.116;6.734;2024-01-07T03:42:05;0.40;99.90
57652;DHT22;43480;53.116;6.734;2024-01-07T03:44:39;0.40;99.90
57652;DHT22;43480;53.116;6.734;2024-01-07T03:47:06;0.40;99.90
57652;DHT22;43480;53.116;6.734;2024-01-07T03:49:32;0.40;99.90
57652;DHT22;43480;53.116;6.734;2024-01-07T03:51:58;0.40;99.90
57652;DHT22;43480;53.116;6.734;2024-01-07T03:54:23;0.40;99.90
57652;DHT22;43480;53.116;6.734;2024-01-07T03:56:49;0.40;99.90
57652;DHT22;43480;53.116;6.734;2024-01-07T03:59:15;0.40;99.90
57652;DHT22;43480;53.116;6.734;2024-01-07T04:01:40;0.40;99.90
57652;DHT22;43480;53.116;6.734;2024-01-07T04:04:06;0.40;99.90
57652;DHT22;43480;53.116;6.734;2024-01-07T04:06:32;0.40;99.90
57652;DHT22;43480;53.116;6.734;2024-01-07T04:08:58;0.40;99.90
57652;DHT22;43480;53.116;6.734;2024-01-07T04:11:23;0.40;99.90
57652;DHT22;43480;53.116;6.734;2024-01-07T04:13:49;0.30;99.90
57652;DHT22;43480;53.116;6.734;2024-01-07T04:16:16;0.40;99.90
57652;DHT22;43480;53.116;6.734;2024-01-07T04:18:43;0.40;99.90
57652;DHT22;43480;53.116;6.734;2024-01-07T04:21:12;0.40;99.90
57652;DHT22;43480;53.116;6.734;2024-01-07T04:23:41;0.40;99.90
57652;DHT22;43480;53.116;6.734;2024-01-07T04:26:07;0.30;99.90
57652;DHT22;43480;53.116;6.734;2024-01-07T04:28:33;0.30;99.90
57652;DHT22;43480;53.116;6.734;2024-01-07T04:30:59;0.30;99.90
57652;DHT22;43480;53.116;6.734;2024-01-07T04:33:24;0.30;99.90
57652;DHT22;43480;53.116;6.734;2024-01-07T04:35:50;0.30;99.90
57652;DHT22;43480;53.116;6.734;2024-01-07T04:38:16;0.30;99.90
57652;DHT22;43480;53.116;6.734;2024-01-07T04:40:42;0.30;99.90
57652;DHT22;43480;53.116;6.734;2024-01-07T04:43:07;0.30;99.90
57652;DHT22;43480;53.116;6.734;2024-01-07T04:45:33;0.30;99.90
57652;DHT22;43480;53.116;6.734;2024-01-07T04:47:59;0.20;99.90
57652;DHT22;43480;53.116;6.734;2024-01-07T04:50:24;0.30;99.90
57652;DHT22;43480;53.116;6.734;2024-01-07T04:52:50;0.30;99.90
57652;DHT22;43480;53.116;6.734;2024-01-07T04:55:16;0.30;99.90
57652;DHT22;43480;53.116;6.734;2024-01-07T04:57:42;0.30;99.90
57652;DHT22;43480;53.116;6.734;2024-01-07T05:00:08;0.30;99.90
57652;DHT22;43480;53.116;6.734;2024-01-07T05:02:33;0.30;99.90
57652;DHT22;43480;53.116;6.734;2024-01-07T05:04:59;0.20;99.90
57652;DHT22;43480;53.116;6.734;2024-01-07T05:07:25;0.20;99.90
57652;DHT22;43480;53.116;6.734;2024-01-07T05:09:51;0.30;99.90
57652;DHT22;43480;53.116;6.734;2024-01-07T05:12:16;0.30;99.90
57652;DHT22;43480;53.116;6.734;2024-01-07T05:14:42;0.30;99.90
57652;DHT22;43480;53.116;6.734;2024-01-07T05:17:12;0.20;99.90
57652;DHT22;43480;53.116;6.734;2024-01-07T05:19:40;0.30;99.90
57652;DHT22;43480;53.116;6.734;2024-01-07T05:22:06;0.30;99.90
57652;DHT22;43480;53.116;6.734;2024-01-07T05:24:32;0.30;99.90
57652;DHT22;43480;53.116;6.734;2024-01-07T05:26:58;0.30;99.90
57652;DHT22;43480;53.116;6.734;2024-01-07T05:29:24;0.30;99.90
57652;DHT22;43480;53.116;6.734;2024-01-07T05:31:49;0.30;99.90
57652;DHT22;43480;53.116;6.734;2024-01-07T05:34:15;0.30;99.90
57652;DHT22;43480;53.116;6.734;2024-01-07T05:36:41;0.20;99.90
57652;DHT22;43480;53.116;6.734;2024-01-07T05:39:07;0.30;99.90
57652;DHT22;43480;53.116;6.734;2024-01-07T05:41:32;0.30;99.90
57652;DHT22;43480;53.116;6.734;2024-01-07T05:43:58;0.30;99.90
57652;DHT22;43480;53.116;6.734;2024-01-07T05:46:24;0.20;99.90
57652;DHT22;43480;53.116;6.734;2024-01-07T05:48:50;0.30;99.90
57652;DHT22;43480;53.116;6.734;2024-01-07T05:51:16;0.30;99.90
57652;DHT22;43480;53.116;6.734;2024-01-07T05:53:43;0.20;99.90
57652;DHT22;43480;53.116;6.734;2024-01-07T05:56:09;0.20;99.90
57652;DHT22;43480;53.116;6.734;2024-01-07T05:58:35;0.30;99.90
57652;DHT22;43480;53.116;6.734;2024-01-07T06:01:01;0.30;99.90
57652;DHT22;43480;53.116;6.734;2024-01-07T06:03:27;0.30;99.90
57652;DHT22;43480;53.116;6.734;2024-01-07T06:05:53;0.30;99.90
57652;DHT22;43480;53.116;6.734;2024-01-07T06:08:19;0.30;99.90
57652;DHT22;43480;53.116;6.734;2024-01-07T06:10:44;0.30;99.90
57652;DHT22;43480;53.116;6.734;2024-01-07T06:13:10;0.30;99.90
57652;DHT22;43480;53.116;6.734;2024-01-07T06:15:36;0.30;99.90
57652;DHT22;43480;53.116;6.734;2024-01-07T06:18:02;0.30;99.90
57652;DHT22;43480;53.116;6.734;2024-01-07T06:20:27;0.30;99.90
57652;DHT22;43480;53.116;6.734;2024-01-07T06:22:53;0.30;99.90
57652;DHT22;43480;53.116;6.734;2024-01-07T06:25:19;0.30;99.90
57652;DHT22;43480;53.116;6.734;2024-01-07T06:27:46;0.30;99.90
57652;DHT22;43480;53.116;6.734;2024-01-07T06:30:12;0.30;99.90
57652;DHT22;43480;53.116;6.734;2024-01-07T06:32:39;0.30;99.90
57652;DHT22;43480;53.116;6.734;2024-01-07T06:35:05;0.30;99.90
57652;DHT22;43480;53.116;6.734;2024-01-07T06:37:31;0.30;99.90
57652;DHT22;43480;53.116;6.734;2024-01-07T06:39:57;0.30;99.90
57652;DHT22;43480;53.116;6.734;2024-01-07T06:42:24;0.30;99.90
57652;DHT22;43480;53.116;6.734;2024-01-07T06:44:50;0.30;99.90
57652;DHT22;43480;53.116;6.734;2024-01-07T06:47:16;0.30;99.90
57652;DHT22;43480;53.116;6.734;2024-01-07T06:49:42;0.30;99.90
57652;DHT22;43480;53.116;6.734;2024-01-07T06:52:07;0.30;99.90
57652;DHT22;43480;53.116;6.734;2024-01-07T06:54:33;0.20;99.90
57652;DHT22;43480;53.116;6.734;2024-01-07T06:56:59;0.20;99.90
57652;DHT22;43480;53.116;6.734;2024-01-07T06:59:25;0.20;99.90
57652;DHT22;43480;53.116;6.734;2024-01-07T07:01:51;0.30;99.90
57652;DHT22;43480;53.116;6.734;2024-01-07T07:04:16;0.20;99.90
57652;DHT22;43480;53.116;6.734;2024-01-07T07:06:42;0.20;99.90
57652;DHT22;43480;53.116;6.734;2024-01-07T07:09:08;0.20;99.90
57652;DHT22;43480;53.116;6.734;2024-01-07T07:11:34;0.20;99.90
57652;DHT22;43480;53.116;6.734;2024-01-07T07:13:59;0.20;99.90
57652;DHT22;43480;53.116;6.734;2024-01-07T07:16:25;0.20;99.90
57652;DHT22;43480;53.116;6.734;2024-01-07T07:18:51;0.20;99.90
57652;DHT22;43480;53.116;6.734;2024-01-07T07:21:17;0.20;99.90
57652;DHT22;43480;53.116;6.734;2024-01-07T07:23:43;0.10;99.90
57652;DHT22;43480;53.116;6.734;2024-01-07T07:26:09;0.10;99.90
57652;DHT22;43480;53.116;6.734;2024-01-07T07:28:35;0.10;99.90
57652;DHT22;43480;53.116;6.734;2024-01-07T07:31:01;0.10;99.90
57652;DHT22;43480;53.116;6.734;2024-01-07T07:33:26;0.00;99.90
57652;DHT22;43480;53.116;6.734;2024-01-07T07:35:52;-0.10;99.90
57652;DHT22;43480;53.116;6.734;2024-01-07T07:38:18;-0.10;99.90
57652;DHT22;43480;53.116;6.734;2024-01-07T07:40:43;-0.10;99.90
57652;DHT22;43480;53.116;6.734;2024-01-07T07:43:10;-0.20;99.90
57652;DHT22;43480;53.116;6.734;2024-01-07T07:45:36;-0.30;99.90
57652;DHT22;43480;53.116;6.734;2024-01-07T07:48:02;-0.30;99.90
57652;DHT22;43480;53.116;6.734;2024-01-07T07:50:28;-0.30;99.90
57652;DHT22;43480;53.116;6.734;2024-01-07T07:52:54;-0.30;99.90
57652;DHT22;43480;53.116;6.734;2024-01-07T07:55:19;-0.30;99.90
57652;DHT22;43480;53.116;6.734;2024-01-07T07:57:45;-0.40;99.90
57652;DHT22;43480;53.116;6.734;2024-01-07T08:00:12;-0.40;99.90
57652;DHT22;43480;53.116;6.734;2024-01-07T08:02:38;-0.40;99.90
57652;DHT22;43480;53.116;6.734;2024-01-07T08:05:06;-0.40;99.90
57652;DHT22;43480;53.116;6.734;2024-01-07T08:07:32;-0.40;99.90
57652;DHT22;43480;53.116;6.734;2024-01-07T08:09:58;-0.40;99.90
57652;DHT22;43480;53.116;6.734;2024-01-07T08:12:24;-0.40;99.90
57652;DHT22;43480;53.116;6.734;2024-01-07T08:14:49;-0.40;99.90
57652;DHT22;43480;53.116;6.734;2024-01-07T08:17:15;-0.40;99.90
57652;DHT22;43480;53.116;6.734;2024-01-07T08:19:42;-0.40;99.90
57652;DHT22;43480;53.116;6.734;2024-01-07T08:22:08;-0.40;99.90
57652;DHT22;43480;53.116;6.734;2024-01-07T08:24:34;-0.30;99.90
57652;DHT22;43480;53.116;6.734;2024-01-07T08:27:01;-0.20;99.90
57652;DHT22;43480;53.116;6.734;2024-01-07T08:29:28;-0.10;99.90
57652;DHT22;43480;53.116;6.734;2024-01-07T08:31:54;0.00;99.90
57652;DHT22;43480;53.116;6.734;2024-01-07T08:34:20;0.00;99.90
57652;DHT22;43480;53.116;6.734;2024-01-07T08:36:46;0.00;99.90
57652;DHT22;43480;53.116;6.734;2024-01-07T08:39:14;0.10;99.90
57652;DHT22;43480;53.116;6.734;2024-01-07T08:41:40;0.10;99.90
57652;DHT22;43480;53.116;6.734;2024-01-07T08:44:05;0.10;99.90
57652;DHT22;43480;53.116;6.734;2024-01-07T08:46:34;0.20;99.90
57652;DHT22;43480;53.116;6.734;2024-01-07T08:48:59;0.20;99.90
57652;DHT22;43480;53.116;6.734;2024-01-07T08:51:25;0.20;99.90
57652;DHT22;43480;53.116;6.734;2024-01-07T08:53:51;0.20;99.90
57652;DHT22;43480;53.116;6.734;2024-01-07T08:56:16;0.20;99.90
57652;DHT22;43480;53.116;6.734;2024-01-07T08:58:42;0.30;99.90
57652;DHT22;43480;53.116;6.734;2024-01-07T09:01:08;0.30;99.90
57652;DHT22;43480;53.116;6.734;2024-01-07T09:03:34;0.30;99.90
57652;DHT22;43480;53.116;6.734;2024-01-07T09:05:59;0.30;99.90
57652;DHT22;43480;53.116;6.734;2024-01-07T09:08:25;0.30;99.90
57652;DHT22;43480;53.116;6.734;2024-01-07T09:10:51;0.40;99.90
57652;DHT22;43480;53.116;6.734;2024-01-07T09:13:17;0.40;99.90
57652;DHT22;43480;53.116;6.734;2024-01-07T09:15:43;0.40;99.90
57652;DHT22;43480;53.116;6.734;2024-01-07T09:18:08;0.40;99.90
57652;DHT22;43480;53.116;6.734;2024-01-07T09:20:34;0.50;99.90
57652;DHT22;43480;53.116;6.734;2024-01-07T09:23:00;0.50;99.90
57652;DHT22;43480;53.116;6.734;2024-01-07T09:25:26;0.50;99.90
57652;DHT22;43480;53.116;6.734;2024-01-07T09:27:52;0.50;99.90
57652;DHT22;43480;53.116;6.734;2024-01-07T09:30:18;0.50;99.90
57652;DHT22;43480;53.116;6.734;2024-01-07T09:32:44;0.60;99.90
57652;DHT22;43480;53.116;6.734;2024-01-07T09:35:09;0.60;99.90
57652;DHT22;43480;53.116;6.734;2024-01-07T09:37:36;0.70;99.90
57652;DHT22;43480;53.116;6.734;2024-01-07T09:40:02;0.70;99.90
57652;DHT22;43480;53.116;6.734;2024-01-07T09:42:30;0.70;99.90
57652;DHT22;43480;53.116;6.734;2024-01-07T09:44:56;0.70;99.90
57652;DHT22;43480;53.116;6.734;2024-01-07T09:47:22;0.80;99.90
57652;DHT22;43480;53.116;6.734;2024-01-07T09:49:49;0.70;99.90
57652;DHT22;43480;53.116;6.734;2024-01-07T09:52:15;0.80;99.90
57652;DHT22;43480;53.116;6.734;2024-01-07T09:54:45;0.80;99.90
57652;DHT22;43480;53.116;6.734;2024-01-07T09:57:15;0.80;99.90
57652;DHT22;43480;53.116;6.734;2024-01-07T09:59:40;0.80;99.90
57652;DHT22;43480;53.116;6.734;2024-01-07T10:02:07;0.90;99.90
57652;DHT22;43480;53.116;6.734;2024-01-07T10:04:33;0.90;99.90
57652;DHT22;43480;53.116;6.734;2024-01-07T10:06:59;0.90;99.90
57652;DHT22;43480;53.116;6.734;2024-01-07T10:09:28;0.90;99.90
57652;DHT22;43480;53.116;6.734;2024-01-07T10:11:55;0.90;99.90
57652;DHT22;43480;53.116;6.734;2024-01-07T10:14:21;1.00;99.90
57652;DHT22;43480;53.116;6.734;2024-01-07T10:16:52;1.00;99.90
57652;DHT22;43480;53.116;6.734;2024-01-07T10:19:23;1.00;99.90
57652;DHT22;43480;53.116;6.734;2024-01-07T10:22:05;1.10;99.90
57652;DHT22;43480;53.116;6.734;2024-01-07T10:24:41;1.10;99.90
57652;DHT22;43480;53.116;6.734;2024-01-07T10:27:08;1.20;99.90
57652;DHT22;43480;53.116;6.734;2024-01-07T10:29:34;1.20;99.90
57652;DHT22;43480;53.116;6.734;2024-01-07T10:32:00;1.20;99.90
57652;DHT22;43480;53.116;6.734;2024-01-07T10:34:37;1.20;99.90
57652;DHT22;43480;53.116;6.734;2024-01-07T10:37:04;1.20;99.90
57652;DHT22;43480;53.116;6.734;2024-01-07T10:39:33;1.20;99.90
57652;DHT22;43480;53.116;6.734;2024-01-07T10:42:00;1.20;99.90
57652;DHT22;43480;53.116;6.734;2024-01-07T10:44:29;1.20;99.90
57652;DHT22;43480;53.116;6.734;2024-01-07T10:46:56;1.20;99.90
57652;DHT22;43480;53.116;6.734;2024-01-07T10:49:24;1.20;99.90
57652;DHT22;43480;53.116;6.734;2024-01-07T10:54:28;1.30;99.90
57652;DHT22;43480;53.116;6.734;2024-01-07T10:56:58;1.30;99.90
57652;DHT22;43480;53.116;6.734;2024-01-07T10:59:24;1.40;99.90
57652;DHT22;43480;53.116;6.734;2024-01-07T11:01:51;1.40;99.90
57652;DHT22;43480;53.116;6.734;2024-01-07T11:04:41;1.50;99.90
57652;DHT22;43480;53.116;6.734;2024-01-07T11:07:40;1.50;99.90
57652;DHT22;43480;53.116;6.734;2024-01-07T11:10:17;1.40;99.90
57652;DHT22;43480;53.116;6.734;2024-01-07T11:12:44;1.40;99.90
57652;DHT22;43480;53.116;6.734;2024-01-07T11:18:22;1.40;99.90
57652;DHT22;43480;53.116;6.734;2024-01-07T11:20:49;1.40;99.90
57652;DHT22;43480;53.116;6.734;2024-01-07T11:23:34;1.40;99.90
57652;DHT22;43480;53.116;6.734;2024-01-07T11:26:02;1.30;99.90
57652;DHT22;43480;53.116;6.734;2024-01-07T11:29:03;1.30;99.90
57652;DHT22;43480;53.116;6.734;2024-01-07T11:31:45;1.30;99.90
57652;DHT22;43480;53.116;6.734;2024-01-07T11:34:37;1.20;99.90
57652;DHT22;43480;53.116;6.734;2024-01-07T11:37:07;1.20;99.90
57652;DHT22;43480;53.116;6.734;2024-01-07T11:39:33;1.20;99.90
57652;DHT22;43480;53.116;6.734;2024-01-07T11:42:03;1.20;99.90
57652;DHT22;43480;53.116;6.734;2024-01-07T11:44:29;1.10;99.90
57652;DHT22;43480;53.116;6.734;2024-01-07T11:46:56;1.20;99.90
57652;DHT22;43480;53.116;6.734;2024-01-07T11:49:21;1.10;99.90
57652;DHT22;43480;53.116;6.734;2024-01-07T11:51:47;1.10;99.90
57652;DHT22;43480;53.116;6.734;2024-01-07T11:54:13;1.10;99.90
57652;DHT22;43480;53.116;6.734;2024-01-07T11:56:40;1.10;99.90
57652;DHT22;43480;53.116;6.734;2024-01-07T11:59:05;1.10;99.90
57652;DHT22;43480;53.116;6.734;2024-01-07T12:01:32;1.10;99.90
57652;DHT22;43480;53.116;6.734;2024-01-07T12:03:58;1.10;99.90
57652;DHT22;43480;53.116;6.734;2024-01-07T12:06:24;1.10;99.90
57652;DHT22;43480;53.116;6.734;2024-01-07T12:08:50;1.10;99.90
57652;DHT22;43480;53.116;6.734;2024-01-07T12:11:16;1.10;99.90
57652;DHT22;43480;53.116;6.734;2024-01-07T12:13:42;1.10;99.90
57652;DHT22;43480;53.116;6.734;2024-01-07T12:16:09;1.10;99.90
57652;DHT22;43480;53.116;6.734;2024-01-07T12:18:39;1.20;99.90
57652;DHT22;43480;53.116;6.734;2024-01-07T12:21:05;1.30;99.90
57652;DHT22;43480;53.116;6.734;2024-01-07T12:23:35;1.30;99.90
57652;DHT22;43480;53.116;6.734;2024-01-07T12:26:11;1.40;99.90
57652;DHT22;43480;53.116;6.734;2024-01-07T12:28:38;1.50;99.90
57652;DHT22;43480;53.116;6.734;2024-01-07T12:31:05;1.70;99.90
57652;DHT22;43480;53.116;6.734;2024-01-07T12:33:31;1.70;99.90
57652;DHT22;43480;53.116;6.734;2024-01-07T12:36:01;1.70;99.90
57652;DHT22;43480;53.116;6.734;2024-01-07T12:38:27;1.70;99.90
57652;DHT22;43480;53.116;6.734;2024-01-07T12:40:53;1.70;99.90
57652;DHT22;43480;53.116;6.734;2024-01-07T12:43:19;1.60;99.90
57652;DHT22;43480;53.116;6.734;2024-01-07T12:45:47;1.50;99.90
57652;DHT22;43480;53.116;6.734;2024-01-07T12:48:12;1.40;99.90
57652;DHT22;43480;53.116;6.734;2024-01-07T12:50:38;1.20;99.90
57652;DHT22;43480;53.116;6.734;2024-01-07T12:53:04;1.20;99.90
57652;DHT22;43480;53.116;6.734;2024-01-07T12:55:31;1.20;99.90
57652;DHT22;43480;53.116;6.734;2024-01-07T12:57:57;1.20;99.90
57652;DHT22;43480;53.116;6.734;2024-01-07T13:00:27;1.20;99.90
57652;DHT22;43480;53.116;6.734;2024-01-07T13:02:54;1.30;99.90
57652;DHT22;43480;53.116;6.734;2024-01-07T13:05:20;1.30;99.90
57652;DHT22;43480;53.116;6.734;2024-01-07T13:07:47;1.30;99.90
57652;DHT22;43480;53.116;6.734;2024-01-07T13:10:13;1.40;99.90
57652;DHT22;43480;53.116;6.734;2024-01-07T13:12:39;1.40;99.90
57652;DHT22;43480;53.116;6.734;2024-01-07T13:15:06;1.30;99.90
57652;DHT22;43480;53.116;6.734;2024-01-07T13:17:31;1.30;99.90
57652;DHT22;43480;53.116;6.734;2024-01-07T13:19:59;1.30;99.90
57652;DHT22;43480;53.116;6.734;2024-01-07T13:22:25;1.30;99.90
57652;DHT22;43480;53.116;6.734;2024-01-07T13:24:51;1.20;99.90
57652;DHT22;43480;53.116;6.734;2024-01-07T13:27:17;1.20;99.90
57652;DHT22;43480;53.116;6.734;2024-01-07T13:29:46;1.20;99.90
57652;DHT22;43480;53.116;6.734;2024-01-07T13:32:15;1.10;99.90
57652;DHT22;43480;53.116;6.734;2024-01-07T13:34:43;1.10;99.90
57652;DHT22;43480;53.116;6.734;2024-01-07T13:37:09;1.10;99.90
57652;DHT22;43480;53.116;6.734;2024-01-07T13:39:36;1.10;99.90
57652;DHT22;43480;53.116;6.734;2024-01-07T13:42:02;1.20;99.90
57652;DHT22;43480;53.116;6.734;2024-01-07T13:44:28;1.30;99.90
57652;DHT22;43480;53.116;6.734;2024-01-07T13:46:54;1.40;99.90
57652;DHT22;43480;53.116;6.734;2024-01-07T13:49:19;1.50;99.90
57652;DHT22;43480;53.116;6.734;2024-01-07T13:51:45;1.50;99.90
57652;DHT22;43480;53.116;6.734;2024-01-07T13:54:11;1.50;99.90
57652;DHT22;43480;53.116;6.734;2024-01-07T13:56:40;1.40;99.90
57652;DHT22;43480;53.116;6.734;2024-01-07T13:59:08;1.30;99.90
57652;DHT22;43480;53.116;6.734;2024-01-07T14:01:38;1.20;99.90
57652;DHT22;43480;53.116;6.734;2024-01-07T14:04:05;1.10;99.90
57652;DHT22;43480;53.116;6.734;2024-01-07T14:06:31;1.00;99.90
57652;DHT22;43480;53.116;6.734;2024-01-07T14:08:57;1.00;99.90
57652;DHT22;43480;53.116;6.734;2024-01-07T14:11:23;0.90;99.90
57652;DHT22;43480;53.116;6.734;2024-01-07T14:13:49;0.90;99.90
57652;DHT22;43480;53.116;6.734;2024-01-07T14:16:14;1.00;99.90
57652;DHT22;43480;53.116;6.734;2024-01-07T14:18:40;1.00;99.90
57652;DHT22;43480;53.116;6.734;2024-01-07T14:21:06;1.00;99.90
57652;DHT22;43480;53.116;6.734;2024-01-07T14:23:33;1.00;99.90
57652;DHT22;43480;53.116;6.734;2024-01-07T14:25:59;1.00;99.90
57652;DHT22;43480;53.116;6.734;2024-01-07T14:28:26;0.90;99.90
57652;DHT22;43480;53.116;6.734;2024-01-07T14:30:51;0.90;99.90
57652;DHT22;43480;53.116;6.734;2024-01-07T14:33:17;0.80;99.90
57652;DHT22;43480;53.116;6.734;2024-01-07T14:35:43;0.80;99.90
57652;DHT22;43480;53.116;6.734;2024-01-07T14:38:09;0.80;99.90
57652;DHT22;43480;53.116;6.734;2024-01-07T14:40:35;0.70;99.90
57652;DHT22;43480;53.116;6.734;2024-01-07T14:43:01;0.70;99.90
57652;DHT22;43480;53.116;6.734;2024-01-07T14:45:27;0.70;99.90
57652;DHT22;43480;53.116;6.734;2024-01-07T14:47:53;0.70;99.90
57652;DHT22;43480;53.116;6.734;2024-01-07T14:50:20;0.70;99.90
57652;DHT22;43480;53.116;6.734;2024-01-07T14:52:47;0.60;99.90
57652;DHT22;43480;53.116;6.734;2024-01-07T14:55:13;0.60;99.90
57652;DHT22;43480;53.116;6.734;2024-01-07T14:57:42;0.60;99.90
57652;DHT22;43480;53.116;6.734;2024-01-07T15:00:08;0.60;99.90
57652;DHT22;43480;53.116;6.734;2024-01-07T15:02:34;0.50;99.90
57652;DHT22;43480;53.116;6.734;2024-01-07T15:05:01;0.60;99.90
57652;DHT22;43480;53.116;6.734;2024-01-07T15:07:27;0.50;99.90
57652;DHT22;43480;53.116;6.734;2024-01-07T15:09:53;0.50;99.90
57652;DHT22;43480;53.116;6.734;2024-01-07T15:12:18;0.50;99.90
57652;DHT22;43480;53.116;6.734;2024-01-07T15:14:44;0.40;99.90
57652;DHT22;43480;53.116;6.734;2024-01-07T15:17:10;0.40;99.90
57652;DHT22;43480;53.116;6.734;2024-01-07T15:19:36;0.40;99.90
57652;DHT22;43480;53.116;6.734;2024-01-07T15:22:02;0.30;99.90
57652;DHT22;43480;53.116;6.734;2024-01-07T15:24:28;0.30;99.90
57652;DHT22;43480;53.116;6.734;2024-01-07T15:26:55;0.30;99.90
57652;DHT22;43480;53.116;6.734;2024-01-07T15:29:21;0.20;99.90
57652;DHT22;43480;53.116;6.734;2024-01-07T15:31:46;0.20;99.90
57652;DHT22;43480;53.116;6.734;2024-01-07T15:34:12;0.20;99.90
57652;DHT22;43480;53.116;6.734;2024-01-07T15:36:38;0.20;99.90
57652;DHT22;43480;53.116;6.734;2024-01-07T15:39:06;0.10;99.90
57652;DHT22;43480;53.116;6.734;2024-01-07T15:41:31;0.00;99.90
57652;DHT22;43480;53.116;6.734;2024-01-07T15:43:58;0.00;99.90
57652;DHT22;43480;53.116;6.734;2024-01-07T15:46:24;0.00;99.90